Happy Valentine's Day! 

Flight Track Log - Related Links

Times and Time Zones

All times are in EDT time to prevent confusion due to time zone crossing. See the N465TP flight status page for this flight to view local times or setup timezone preferences in your user account.


Time Position Orientation Groundspeed Altitude Reporting Facility
EDT Latitude Longitude Course Direction KTS MPH feet Rate Location/Type
Tue 11:05:31 AM 42.7683 -106.5519 195° South 175 201 10,200  Level Denver Center
Tue 11:06:00 AM 42.5640 -106.3073 161° South  Level Estimated
Tue 11:06:33 AM 42.7203 -106.5231 156° South 172 198 11,600  Level Denver Center
Tue 11:07:00 AM 42.5067 -106.2813 162° South  Level Estimated
Tue 11:07:35 AM 42.6797 -106.5011 158° South 169 194 12,900  Level Denver Center
Tue 11:08:00 AM 42.4493 -106.2554 162° South  Level Estimated
Tue 11:08:37 AM 42.6292 -106.4744 159° South 175 201 14,300  Level Denver Center
Tue 11:09:00 AM 42.3919 -106.2294 162° South  Level Estimated
Tue 11:09:39 AM 42.5878 -106.4519 158° South 170 196 15,300  Level Denver Center
Tue 11:10:41 AM 42.5436 -106.4283 159° South 175 201 16,400 1,210 Climbing Denver Center
Tue 11:11:43 AM 42.4931 -106.4028 160° South 175 201 17,800 1,016 Climbing Denver Center
Tue 11:12:45 AM 42.4483 -106.3797 159° South 178 205 18,500 1,065 Climbing Denver Center
Tue 11:13:47 AM 42.3939 -106.3500 158° South 188 216 20,000 1,306 Climbing Denver Center
Tue 11:14:49 AM 42.3469 -106.3269 160° South 188 216 21,200 1,056 Climbing Denver Center
Tue 11:15:52 AM 42.2928 -106.2983 159° South 187 215 22,200 912 Climbing Denver Center
Tue 11:16:54 AM 42.2467 -106.2725 157° South 187 215 23,100 968 Climbing Denver Center
Tue 11:17:56 AM 42.1906 -106.2483 162° South 190 219 24,200 823 Climbing Denver Center
Tue 11:18:58 AM 42.1397 -106.2239 160° South 198 228 24,800 387 Climbing Denver Center
Tue 11:20:00 AM 42.0767 -106.1967 162° South 212 244 25,000 97 Climbing Denver Center
Tue 11:21:02 AM 42.0178 -106.1694 161° South 229 264 25,000  Level Denver Center
Tue 11:22:04 AM 41.9494 -106.1394 162° South 232 267 25,000  Level Denver Center
Tue 11:23:06 AM 41.8881 -106.1119 162° South 238 274 25,000  Level Denver Center
Tue 11:24:08 AM 41.8172 -106.0794 161° South 242 278 25,000  Level Denver Center
Tue 11:25:10 AM 41.7561 -106.0517 161° South 243 280 25,000  Level Denver Center
Tue 11:26:12 AM 41.7042 -106.0289 162° South 245 282 25,000  Level Denver Center
Tue 11:27:14 AM 41.6233 -105.9925 161° South 242 278 25,000  Level Denver Center
Tue 11:28:16 AM 41.5536 -105.9622 162° South 237 273 25,000  Level Denver Center
Tue 11:29:18 AM 41.4944 -105.9372 162° South 235 270 25,000  Level Denver Center
Tue 11:30:20 AM 41.4256 -105.9067 162° South 234 269 25,000  Level Denver Center
Tue 11:31:22 AM 41.3664 -105.8794 161° South 236 272 25,000  Level Denver Center
Tue 11:32:25 AM 41.2989 -105.8511 162° South 229 264 25,000  Level Denver Center
Tue 11:33:27 AM 41.2417 -105.8247 161° South 228 262 25,000  Level Denver Center
Tue 11:34:29 AM 41.1842 -105.7992 162° South 228 262 25,000  Level Denver Center
Tue 11:35:31 AM 41.1144 -105.7681 161° South 234 269 25,000  Level Denver Center
Tue 11:36:33 AM 41.0569 -105.7428 162° South 230 265 25,000  Level Denver Center
Tue 11:37:35 AM 40.9942 -105.7158 162° South 232 267 25,000  Level Denver Center
Tue 11:38:37 AM 40.9328 -105.6878 161° South 234 269 25,000  Level Denver Center
Tue 11:39:39 AM 40.8592 -105.6586 163° South 231 266 25,000  Level Denver Center
Tue 11:40:41 AM 40.7978 -105.6297 160° South 234 269 25,000  Level Denver Center
Tue 11:41:43 AM 40.7361 -105.6025 162° South 236 272 25,000  Level Denver Center
Tue 11:42:45 AM 40.6753 -105.5758 162° South 231 266 25,000  Level Denver Center
Tue 11:43:47 AM 40.6136 -105.5497 162° South 232 267 25,000  Level Denver Center
Tue 11:44:49 AM 40.5394 -105.5178 162° South 234 269 25,000 -194 Level Denver Center
Tue 11:45:51 AM 40.4778 -105.4911 162° South 234 269 24,600 -677 Descending Denver Center
Tue 11:46:53 AM 40.4117 -105.4617 161° South 248 285 23,600 -768 Descending Denver Center
Tue 11:47:56 AM 40.3447 -105.4283 159° South 238 274 23,000 -288 Descending Denver Center
Tue 11:48:58 AM 40.2969 -105.3656 135° Southeast 245 282 23,000  Level Denver Center
Tue 11:50:00 AM 40.2447 -105.3000 136° Southeast 243 280 23,000  Level Denver Center
Tue 11:51:02 AM 40.1964 -105.2406 137° Southeast 242 278 23,000  Level Denver Center
Tue 11:52:04 AM 40.1478 -105.1806 137° Southeast 241 277 23,000  Level Denver Center
Tue 11:53:06 AM 40.0947 -105.1200 139° Southeast 235 270 23,000  Level Denver Center
Tue 11:54:08 AM 40.0317 -105.0967 164° South 235 270 23,000  Level Denver Center
Tue 11:55:22 AM 39.9647 -105.0678 162° South 235 270 23,000  Level Denver Center
Tue 11:56:24 AM 39.8881 -105.0347 162° South 237 273 23,000  Level Denver Center
Tue 11:57:26 AM 39.8208 -105.0067 162° South 237 273 23,000  Level Denver Center
Tue 11:58:29 AM 39.7572 -104.9792 162° South 242 278 23,000 -96 Level Denver Center
Tue 11:59:31 AM 39.6906 -104.9519 163° South 234 269 22,800 -397 Descending Denver Center
Tue 12:00:45 PM 39.6269 -104.9236 161° South 241 277 22,100 -662 Descending Denver Center
Tue 12:01:47 PM 39.5514 -104.8842 158° South 239 275 21,300 -774 Descending Denver Center
Tue 12:02:49 PM 39.4914 -104.8331 147° Southeast 238 274 20,500 -726 Descending Denver Center
Tue 12:03:51 PM 39.4325 -104.7950 153° Southeast 246 283 19,800 -677 Descending Denver Center
Tue 12:04:53 PM 39.3631 -104.7925 178° South 231 266 19,100 -726 Descending Denver Center
Tue 12:05:55 PM 39.2975 -104.7936 181° South 236 272 18,300 -672 Descending Denver Center
Tue 12:06:58 PM 39.2331 -104.7619 159° South 229 264 17,700 -768 Descending Denver Center
Tue 12:08:00 PM 39.1719 -104.7339 160° South 234 269 16,700 -1,065 Descending Denver Center
Tue 12:09:02 PM 39.1125 -104.7078 161° South 225 259 15,500 -1,147 Descending Denver Center
Tue 12:10:16 PM 39.0519 -104.6825 162° South 228 262 14,100 -1,368 Descending Denver Center
Tue 12:11:18 PM 38.9794 -104.6500 161° South 229 264 12,400 -1,403 Descending Denver Center
Tue 12:12:20 PM 38.9083 -104.6436 176° South 216 249 11,200 -968 Descending Denver Center
Tue 12:13:22 PM 38.8503 -104.6469 183° South 200 230 10,400 -1,016 Descending Denver Center
Tue 12:14:24 PM 38.7944 -104.6525 184° South 205 236 9,100 -1,500 Descending Denver Center
Tue 12:15:26 PM 38.7608 -104.6989 227° Southwest 211 243 7,300 -1,210 Descending Denver Center
Tue 12:16:28 PM 38.7919 -104.7269 325° Northwest 186 214 6,600 -677 Descending Denver Center
Tue 12:18:00 PM 38.8000 -104.7000 38° Northeast  Level FlightAware Approximate
Tue 12:25:00 PM 38.8058 -104.7008 38° Northeast  Level Estimated

Login

Don't have an account? Register now (free) for customized features, flight alerts, and more!